sensor_id;sensor_type;location;lat;lon;timestamp;P1;durP1;ratioP1;P2;durP2;ratioP2
77762;SDS011;77162;53.358;-1.456;2024-03-23T00:55:54;4.25;;;1.90;;
77762;SDS011;77162;53.358;-1.456;2024-03-23T00:58:38;5.45;;;1.85;;
77762;SDS011;77162;53.358;-1.456;2024-03-23T01:01:22;5.15;;;2.00;;
77762;SDS011;77162;53.358;-1.456;2024-03-23T01:04:06;5.40;;;1.95;;
77762;SDS011;77162;53.358;-1.456;2024-03-23T01:06:49;6.40;;;2.28;;
77762;SDS011;77162;53.358;-1.456;2024-03-23T01:09:33;4.63;;;2.00;;
77762;SDS011;77162;53.358;-1.456;2024-03-23T01:12:17;5.57;;;2.08;;
77762;SDS011;77162;53.358;-1.456;2024-03-23T01:15:01;4.60;;;1.58;;
77762;SDS011;77162;53.358;-1.456;2024-03-23T01:17:46;4.85;;;1.65;;
77762;SDS011;77162;53.358;-1.456;2024-03-23T01:20:30;4.70;;;1.75;;
77762;SDS011;77162;53.358;-1.456;2024-03-23T01:23:14;5.25;;;1.92;;
77762;SDS011;77162;53.358;-1.456;2024-03-23T01:25:58;4.10;;;1.80;;
77762;SDS011;77162;53.358;-1.456;2024-03-23T01:28:42;4.75;;;1.83;;
77762;SDS011;77162;53.358;-1.456;2024-03-23T01:31:26;5.80;;;2.03;;
77762;SDS011;77162;53.358;-1.456;2024-03-23T01:34:10;6.97;;;2.28;;
77762;SDS011;77162;53.358;-1.456;2024-03-23T01:36:53;6.70;;;2.17;;
77762;SDS011;77162;53.358;-1.456;2024-03-23T01:39:37;5.88;;;2.10;;
77762;SDS011;77162;53.358;-1.456;2024-03-23T01:42:22;5.30;;;1.92;;
77762;SDS011;77162;53.358;-1.456;2024-03-23T01:45:07;5.57;;;1.80;;
77762;SDS011;77162;53.358;-1.456;2024-03-23T01:47:51;5.60;;;2.00;;
77762;SDS011;77162;53.358;-1.456;2024-03-23T01:50:36;5.28;;;2.00;;
77762;SDS011;77162;53.358;-1.456;2024-03-23T01:53:20;6.53;;;1.88;;
77762;SDS011;77162;53.358;-1.456;2024-03-23T01:56:05;4.43;;;1.73;;
77762;SDS011;77162;53.358;-1.456;2024-03-23T01:58:49;6.15;;;2.33;;
77762;SDS011;77162;53.358;-1.456;2024-03-23T02:01:36;5.47;;;1.77;;
77762;SDS011;77162;53.358;-1.456;2024-03-23T02:04:20;6.95;;;2.20;;
77762;SDS011;77162;53.358;-1.456;2024-03-23T02:07:06;5.78;;;1.77;;
77762;SDS011;77162;53.358;-1.456;2024-03-23T02:09:51;5.68;;;1.70;;
77762;SDS011;77162;53.358;-1.456;2024-03-23T02:12:35;4.72;;;1.85;;
77762;SDS011;77162;53.358;-1.456;2024-03-23T02:15:20;5.35;;;1.58;;
77762;SDS011;77162;53.358;-1.456;2024-03-23T02:18:03;5.53;;;1.77;;
77762;SDS011;77162;53.358;-1.456;2024-03-23T02:20:47;6.00;;;1.90;;
77762;SDS011;77162;53.358;-1.456;2024-03-23T02:23:31;4.65;;;1.63;;
77762;SDS011;77162;53.358;-1.456;2024-03-23T02:26:15;6.60;;;2.00;;
77762;SDS011;77162;53.358;-1.456;2024-03-23T02:29:00;6.13;;;1.73;;
77762;SDS011;77162;53.358;-1.456;2024-03-23T02:31:44;4.55;;;1.55;;
77762;SDS011;77162;53.358;-1.456;2024-03-23T02:34:28;5.32;;;1.63;;
77762;SDS011;77162;53.358;-1.456;2024-03-23T02:37:12;7.35;;;1.90;;
77762;SDS011;77162;53.358;-1.456;2024-03-23T02:39:56;5.07;;;1.98;;
77762;SDS011;77162;53.358;-1.456;2024-03-23T02:42:40;4.45;;;1.63;;
77762;SDS011;77162;53.358;-1.456;2024-03-23T02:45:23;7.18;;;1.90;;
77762;SDS011;77162;53.358;-1.456;2024-03-23T02:48:07;4.95;;;1.90;;
77762;SDS011;77162;53.358;-1.456;2024-03-23T02:50:51;4.90;;;1.67;;
77762;SDS011;77162;53.358;-1.456;2024-03-23T02:53:35;5.95;;;1.98;;
77762;SDS011;77162;53.358;-1.456;2024-03-23T02:56:19;3.92;;;1.63;;
77762;SDS011;77162;53.358;-1.456;2024-03-23T02:59:03;5.40;;;1.70;;
77762;SDS011;77162;53.358;-1.456;2024-03-23T03:01:47;4.80;;;1.85;;
77762;SDS011;77162;53.358;-1.456;2024-03-23T03:04:31;5.70;;;1.70;;
77762;SDS011;77162;53.358;-1.456;2024-03-23T03:07:14;5.13;;;1.85;;
77762;SDS011;77162;53.358;-1.456;2024-03-23T03:09:58;5.18;;;1.75;;
77762;SDS011;77162;53.358;-1.456;2024-03-23T03:12:42;4.78;;;1.50;;
77762;SDS011;77162;53.358;-1.456;2024-03-23T03:15:26;5.47;;;1.70;;
77762;SDS011;77162;53.358;-1.456;2024-03-23T03:18:11;6.13;;;1.90;;
77762;SDS011;77162;53.358;-1.456;2024-03-23T03:20:54;5.18;;;1.70;;
77762;SDS011;77162;53.358;-1.456;2024-03-23T03:23:38;6.95;;;1.73;;
77762;SDS011;77162;53.358;-1.456;2024-03-23T03:26:22;5.40;;;1.90;;
77762;SDS011;77162;53.358;-1.456;2024-03-23T03:29:06;5.80;;;2.05;;
77762;SDS011;77162;53.358;-1.456;2024-03-23T03:31:50;4.93;;;1.63;;
77762;SDS011;77162;53.358;-1.456;2024-03-23T03:34:34;5.00;;;1.73;;
77762;SDS011;77162;53.358;-1.456;2024-03-23T03:37:18;3.80;;;1.75;;
77762;SDS011;77162;53.358;-1.456;2024-03-23T03:40:02;5.35;;;1.83;;
77762;SDS011;77162;53.358;-1.456;2024-03-23T03:42:46;4.85;;;1.60;;
77762;SDS011;77162;53.358;-1.456;2024-03-23T03:45:32;4.60;;;1.83;;
77762;SDS011;77162;53.358;-1.456;2024-03-23T03:48:16;6.93;;;1.73;;
77762;SDS011;77162;53.358;-1.456;2024-03-23T03:51:00;3.28;;;1.35;;
77762;SDS011;77162;53.358;-1.456;2024-03-23T03:53:44;3.83;;;1.35;;
77762;SDS011;77162;53.358;-1.456;2024-03-23T03:56:28;4.45;;;1.50;;
77762;SDS011;77162;53.358;-1.456;2024-03-23T03:59:12;3.92;;;1.27;;
77762;SDS011;77162;53.358;-1.456;2024-03-23T04:01:56;4.53;;;1.67;;
77762;SDS011;77162;53.358;-1.456;2024-03-23T04:04:40;5.53;;;1.75;;
77762;SDS011;77162;53.358;-1.456;2024-03-23T04:07:24;5.22;;;1.80;;
77762;SDS011;77162;53.358;-1.456;2024-03-23T04:10:08;5.80;;;1.50;;
77762;SDS011;77162;53.358;-1.456;2024-03-23T04:12:51;4.80;;;1.60;;
77762;SDS011;77162;53.358;-1.456;2024-03-23T04:15:35;4.50;;;1.70;;
77762;SDS011;77162;53.358;-1.456;2024-03-23T04:18:19;4.05;;;1.70;;
77762;SDS011;77162;53.358;-1.456;2024-03-23T04:21:03;5.10;;;1.75;;
77762;SDS011;77162;53.358;-1.456;2024-03-23T04:23:47;5.63;;;1.60;;
77762;SDS011;77162;53.358;-1.456;2024-03-23T04:26:40;5.15;;;1.60;;
77762;SDS011;77162;53.358;-1.456;2024-03-23T04:29:24;5.75;;;1.75;;
77762;SDS011;77162;53.358;-1.456;2024-03-23T04:32:09;6.40;;;1.70;;
77762;SDS011;77162;53.358;-1.456;2024-03-23T04:34:53;4.28;;;1.50;;
77762;SDS011;77162;53.358;-1.456;2024-03-23T04:37:37;5.38;;;1.63;;
77762;SDS011;77162;53.358;-1.456;2024-03-23T04:40:24;5.45;;;1.90;;
77762;SDS011;77162;53.358;-1.456;2024-03-23T04:43:07;4.68;;;1.70;;
77762;SDS011;77162;53.358;-1.456;2024-03-23T04:45:51;5.50;;;1.85;;
77762;SDS011;77162;53.358;-1.456;2024-03-23T04:48:35;5.40;;;1.70;;
77762;SDS011;77162;53.358;-1.456;2024-03-23T04:51:20;5.65;;;1.90;;
77762;SDS011;77162;53.358;-1.456;2024-03-23T04:54:04;5.53;;;1.90;;
77762;SDS011;77162;53.358;-1.456;2024-03-23T04:56:49;4.97;;;1.80;;
77762;SDS011;77162;53.358;-1.456;2024-03-23T04:59:33;5.35;;;1.70;;
77762;SDS011;77162;53.358;-1.456;2024-03-23T05:02:17;5.68;;;1.88;;
77762;SDS011;77162;53.358;-1.456;2024-03-23T05:05:00;5.13;;;1.50;;
77762;SDS011;77162;53.358;-1.456;2024-03-23T05:07:44;4.50;;;1.60;;
77762;SDS011;77162;53.358;-1.456;2024-03-23T05:10:28;3.67;;;1.50;;
77762;SDS011;77162;53.358;-1.456;2024-03-23T05:13:12;5.00;;;1.40;;
77762;SDS011;77162;53.358;-1.456;2024-03-23T05:15:56;5.07;;;1.60;;
77762;SDS011;77162;53.358;-1.456;2024-03-23T05:18:40;4.03;;;1.45;;
77762;SDS011;77162;53.358;-1.456;2024-03-23T05:21:24;4.85;;;1.50;;
77762;SDS011;77162;53.358;-1.456;2024-03-23T05:24:08;3.63;;;1.50;;
77762;SDS011;77162;53.358;-1.456;2024-03-23T05:26:51;3.83;;;1.40;;
77762;SDS011;77162;53.358;-1.456;2024-03-23T05:29:36;3.83;;;1.33;;
77762;SDS011;77162;53.358;-1.456;2024-03-23T05:32:19;5.13;;;1.80;;
77762;SDS011;77162;53.358;-1.456;2024-03-23T05:35:04;4.95;;;1.40;;
77762;SDS011;77162;53.358;-1.456;2024-03-23T05:37:48;4.43;;;1.70;;
77762;SDS011;77162;53.358;-1.456;2024-03-23T05:40:32;3.40;;;1.60;;
77762;SDS011;77162;53.358;-1.456;2024-03-23T05:43:15;3.20;;;1.30;;
77762;SDS011;77162;53.358;-1.456;2024-03-23T05:46:00;5.13;;;1.48;;
77762;SDS011;77162;53.358;-1.456;2024-03-23T05:48:45;4.03;;;1.20;;
77762;SDS011;77162;53.358;-1.456;2024-03-23T05:51:29;4.03;;;1.50;;
77762;SDS011;77162;53.358;-1.456;2024-03-23T05:54:13;5.03;;;1.65;;
77762;SDS011;77162;53.358;-1.456;2024-03-23T05:56:57;4.72;;;1.50;;
77762;SDS011;77162;53.358;-1.456;2024-03-23T05:59:40;3.85;;;1.60;;
77762;SDS011;77162;53.358;-1.456;2024-03-23T06:02:24;3.60;;;1.50;;
77762;SDS011;77162;53.358;-1.456;2024-03-23T06:05:08;3.38;;;1.35;;
77762;SDS011;77162;53.358;-1.456;2024-03-23T06:07:52;4.50;;;1.60;;
77762;SDS011;77162;53.358;-1.456;2024-03-23T06:10:36;5.15;;;1.73;;
77762;SDS011;77162;53.358;-1.456;2024-03-23T06:13:20;3.85;;;1.30;;
77762;SDS011;77162;53.358;-1.456;2024-03-23T06:16:08;3.45;;;1.60;;
77762;SDS011;77162;53.358;-1.456;2024-03-23T06:18:52;4.07;;;1.70;;
77762;SDS011;77162;53.358;-1.456;2024-03-23T06:21:36;4.75;;;1.50;;
77762;SDS011;77162;53.358;-1.456;2024-03-23T06:24:21;3.42;;;1.30;;
77762;SDS011;77162;53.358;-1.456;2024-03-23T06:27:05;4.95;;;1.58;;
77762;SDS011;77162;53.358;-1.456;2024-03-23T06:29:49;4.00;;;1.50;;
77762;SDS011;77162;53.358;-1.456;2024-03-23T06:32:33;3.35;;;1.30;;
77762;SDS011;77162;53.358;-1.456;2024-03-23T06:35:17;4.53;;;1.38;;
77762;SDS011;77162;53.358;-1.456;2024-03-23T06:38:01;4.22;;;1.48;;
77762;SDS011;77162;53.358;-1.456;2024-03-23T06:40:44;7.18;;;1.92;;
77762;SDS011;77162;53.358;-1.456;2024-03-23T06:43:34;4.88;;;1.48;;
77762;SDS011;77162;53.358;-1.456;2024-03-23T06:46:18;3.70;;;1.67;;
77762;SDS011;77162;53.358;-1.456;2024-03-23T06:49:02;4.18;;;1.30;;
77762;SDS011;77162;53.358;-1.456;2024-03-23T06:51:46;4.80;;;1.50;;
77762;SDS011;77162;53.358;-1.456;2024-03-23T06:54:30;4.57;;;1.33;;
77762;SDS011;77162;53.358;-1.456;2024-03-23T06:57:14;6.75;;;1.80;;
77762;SDS011;77162;53.358;-1.456;2024-03-23T06:59:58;3.97;;;1.45;;
77762;SDS011;77162;53.358;-1.456;2024-03-23T07:02:42;4.60;;;1.40;;
77762;SDS011;77162;53.358;-1.456;2024-03-23T07:05:27;5.18;;;1.95;;
77762;SDS011;77162;53.358;-1.456;2024-03-23T07:08:11;3.75;;;1.30;;
77762;SDS011;77162;53.358;-1.456;2024-03-23T07:10:55;5.03;;;1.60;;
77762;SDS011;77162;53.358;-1.456;2024-03-23T07:13:39;3.90;;;1.23;;
77762;SDS011;77162;53.358;-1.456;2024-03-23T07:16:23;4.80;;;1.60;;
77762;SDS011;77162;53.358;-1.456;2024-03-23T07:19:07;2.90;;;1.40;;
77762;SDS011;77162;53.358;-1.456;2024-03-23T07:21:51;4.30;;;1.60;;
77762;SDS011;77162;53.358;-1.456;2024-03-23T07:24:35;8.88;;;1.70;;
77762;SDS011;77162;53.358;-1.456;2024-03-23T07:27:19;8.15;;;1.65;;
77762;SDS011;77162;53.358;-1.456;2024-03-23T07:30:03;5.30;;;1.60;;
77762;SDS011;77162;53.358;-1.456;2024-03-23T07:32:47;5.65;;;1.70;;
77762;SDS011;77162;53.358;-1.456;2024-03-23T07:35:31;5.07;;;1.50;;
77762;SDS011;77162;53.358;-1.456;2024-03-23T07:38:14;6.85;;;1.77;;
77762;SDS011;77162;53.358;-1.456;2024-03-23T07:43:48;4.57;;;1.60;;
77762;SDS011;77162;53.358;-1.456;2024-03-23T07:46:33;4.07;;;1.60;;
77762;SDS011;77162;53.358;-1.456;2024-03-23T07:49:17;5.90;;;1.58;;
77762;SDS011;77162;53.358;-1.456;2024-03-23T07:52:01;8.50;;;1.70;;
77762;SDS011;77162;53.358;-1.456;2024-03-23T07:54:45;6.55;;;1.85;;
77762;SDS011;77162;53.358;-1.456;2024-03-23T07:57:29;4.35;;;1.58;;
77762;SDS011;77162;53.358;-1.456;2024-03-23T08:00:13;4.45;;;1.45;;
77762;SDS011;77162;53.358;-1.456;2024-03-23T08:02:57;4.63;;;1.67;;
77762;SDS011;77162;53.358;-1.456;2024-03-23T08:05:41;6.10;;;1.77;;
77762;SDS011;77162;53.358;-1.456;2024-03-23T08:08:25;8.93;;;1.80;;
77762;SDS011;77162;53.358;-1.456;2024-03-23T08:11:09;6.18;;;1.52;;
77762;SDS011;77162;53.358;-1.456;2024-03-23T08:13:53;4.93;;;1.63;;
77762;SDS011;77162;53.358;-1.456;2024-03-23T08:16:37;4.28;;;1.23;;
77762;SDS011;77162;53.358;-1.456;2024-03-23T08:19:21;5.78;;;1.60;;
77762;SDS011;77162;53.358;-1.456;2024-03-23T08:22:05;6.55;;;1.55;;
77762;SDS011;77162;53.358;-1.456;2024-03-23T08:24:49;6.13;;;1.48;;
77762;SDS011;77162;53.358;-1.456;2024-03-23T08:27:33;7.28;;;2.10;;
77762;SDS011;77162;53.358;-1.456;2024-03-23T08:30:17;4.88;;;1.70;;
77762;SDS011;77162;53.358;-1.456;2024-03-23T08:33:01;6.45;;;1.77;;
77762;SDS011;77162;53.358;-1.456;2024-03-23T08:35:57;6.68;;;2.00;;
77762;SDS011;77162;53.358;-1.456;2024-03-23T08:38:41;5.20;;;1.60;;
77762;SDS011;77162;53.358;-1.456;2024-03-23T08:41:25;10.45;;;2.08;;
77762;SDS011;77162;53.358;-1.456;2024-03-23T08:44:09;5.70;;;1.67;;
77762;SDS011;77162;53.358;-1.456;2024-03-23T08:46:55;6.78;;;1.90;;
77762;SDS011;77162;53.358;-1.456;2024-03-23T08:49:39;6.78;;;2.35;;
77762;SDS011;77162;53.358;-1.456;2024-03-23T08:52:23;5.35;;;1.88;;
77762;SDS011;77162;53.358;-1.456;2024-03-23T08:55:09;5.28;;;1.65;;
77762;SDS011;77162;53.358;-1.456;2024-03-23T08:57:53;7.15;;;2.00;;
77762;SDS011;77162;53.358;-1.456;2024-03-23T09:00:37;4.80;;;1.65;;
77762;SDS011;77162;53.358;-1.456;2024-03-23T09:03:21;5.45;;;2.03;;
77762;SDS011;77162;53.358;-1.456;2024-03-23T09:06:12;8.27;;;1.92;;
77762;SDS011;77162;53.358;-1.456;2024-03-23T09:08:56;7.18;;;1.70;;
77762;SDS011;77162;53.358;-1.456;2024-03-23T09:11:40;8.32;;;2.22;;
77762;SDS011;77162;53.358;-1.456;2024-03-23T09:14:23;6.47;;;2.10;;
77762;SDS011;77162;53.358;-1.456;2024-03-23T09:17:07;7.25;;;2.30;;
77762;SDS011;77162;53.358;-1.456;2024-03-23T09:19:51;6.72;;;2.80;;
77762;SDS011;77162;53.358;-1.456;2024-03-23T09:22:36;9.45;;;3.03;;
77762;SDS011;77162;53.358;-1.456;2024-03-23T09:25:20;8.73;;;3.38;;
77762;SDS011;77162;53.358;-1.456;2024-03-23T09:28:04;7.00;;;3.40;;
77762;SDS011;77162;53.358;-1.456;2024-03-23T09:30:48;7.50;;;2.80;;
77762;SDS011;77162;53.358;-1.456;2024-03-23T09:33:32;7.18;;;2.95;;
77762;SDS011;77162;53.358;-1.456;2024-03-23T09:36:16;6.20;;;2.70;;
77762;SDS011;77162;53.358;-1.456;2024-03-23T09:39:00;6.40;;;2.72;;
77762;SDS011;77162;53.358;-1.456;2024-03-23T09:41:45;8.07;;;2.65;;
77762;SDS011;77162;53.358;-1.456;2024-03-23T09:44:29;9.00;;;3.60;;
77762;SDS011;77162;53.358;-1.456;2024-03-23T09:47:12;11.32;;;4.60;;
77762;SDS011;77162;53.358;-1.456;2024-03-23T09:49:56;10.65;;;4.68;;
77762;SDS011;77162;53.358;-1.456;2024-03-23T09:52:40;9.85;;;4.97;;
77762;SDS011;77162;53.358;-1.456;2024-03-23T09:55:27;18.27;;;9.18;;
77762;SDS011;77162;53.358;-1.456;2024-03-23T09:58:18;16.27;;;8.75;;
77762;SDS011;77162;53.358;-1.456;2024-03-23T10:01:02;14.23;;;7.55;;
77762;SDS011;77162;53.358;-1.456;2024-03-23T10:03:47;13.57;;;6.63;;
77762;SDS011;77162;53.358;-1.456;2024-03-23T10:06:30;11.70;;;5.57;;
77762;SDS011;77162;53.358;-1.456;2024-03-23T10:09:17;10.27;;;5.55;;
77762;SDS011;77162;53.358;-1.456;2024-03-23T10:12:12;11.13;;;5.18;;
77762;SDS011;77162;53.358;-1.456;2024-03-23T10:14:57;13.05;;;5.90;;
77762;SDS011;77162;53.358;-1.456;2024-03-23T10:17:41;14.20;;;7.38;;
77762;SDS011;77162;53.358;-1.456;2024-03-23T10:20:25;10.90;;;6.68;;
77762;SDS011;77162;53.358;-1.456;2024-03-23T10:23:15;13.25;;;6.78;;
77762;SDS011;77162;53.358;-1.456;2024-03-23T10:28:59;10.45;;;5.30;;
77762;SDS011;77162;53.358;-1.456;2024-03-23T10:31:44;7.35;;;3.67;;
77762;SDS011;77162;53.358;-1.456;2024-03-23T10:34:30;8.20;;;3.55;;
77762;SDS011;77162;53.358;-1.456;2024-03-23T10:37:14;7.43;;;4.00;;
77762;SDS011;77162;53.358;-1.456;2024-03-23T10:39:58;8.77;;;3.17;;
77762;SDS011;77162;53.358;-1.456;2024-03-23T10:42:42;7.38;;;3.53;;
77762;SDS011;77162;53.358;-1.456;2024-03-23T10:45:26;6.75;;;2.67;;
77762;SDS011;77162;53.358;-1.456;2024-03-23T10:48:10;7.80;;;3.22;;
77762;SDS011;77162;53.358;-1.456;2024-03-23T10:50:54;7.95;;;2.80;;
77762;SDS011;77162;53.358;-1.456;2024-03-23T10:53:39;7.18;;;2.80;;
77762;SDS011;77162;53.358;-1.456;2024-03-23T10:56:23;8.10;;;3.15;;
77762;SDS011;77162;53.358;-1.456;2024-03-23T10:59:07;5.53;;;2.35;;
77762;SDS011;77162;53.358;-1.456;2024-03-23T11:01:58;5.22;;;2.40;;
77762;SDS011;77162;53.358;-1.456;2024-03-23T11:04:43;12.98;;;3.55;;
77762;SDS011;77162;53.358;-1.456;2024-03-23T11:10:24;7.68;;;2.90;;
77762;SDS011;77162;53.358;-1.456;2024-03-23T11:13:23;9.77;;;2.92;;
77762;SDS011;77162;53.358;-1.456;2024-03-23T11:16:14;8.88;;;2.97;;
77762;SDS011;77162;53.358;-1.456;2024-03-23T11:22:01;10.15;;;3.20;;
77762;SDS011;77162;53.358;-1.456;2024-03-23T11:24:49;8.98;;;2.70;;
77762;SDS011;77162;53.358;-1.456;2024-03-23T11:27:33;11.05;;;3.03;;
77762;SDS011;77162;53.358;-1.456;2024-03-23T11:33:01;8.82;;;2.75;;
77762;SDS011;77162;53.358;-1.456;2024-03-23T11:35:45;11.27;;;3.13;;
77762;SDS011;77162;53.358;-1.456;2024-03-23T11:38:29;6.40;;;2.28;;
77762;SDS011;77162;53.358;-1.456;2024-03-23T11:41:20;7.40;;;2.17;;
77762;SDS011;77162;53.358;-1.456;2024-03-23T11:47:09;6.82;;;2.38;;
77762;SDS011;77162;53.358;-1.456;2024-03-23T11:49:54;5.65;;;2.08;;
77762;SDS011;77162;53.358;-1.456;2024-03-23T11:52:38;5.60;;;2.08;;
77762;SDS011;77162;53.358;-1.456;2024-03-23T11:55:24;6.38;;;1.80;;
77762;SDS011;77162;53.358;-1.456;2024-03-23T11:58:07;5.90;;;2.10;;
77762;SDS011;77162;53.358;-1.456;2024-03-23T12:03:36;7.05;;;2.55;;
77762;SDS011;77162;53.358;-1.456;2024-03-23T12:06:20;5.63;;;2.13;;
77762;SDS011;77162;53.358;-1.456;2024-03-23T12:09:07;5.80;;;1.90;;
77762;SDS011;77162;53.358;-1.456;2024-03-23T12:11:51;5.68;;;1.95;;
77762;SDS011;77162;53.358;-1.456;2024-03-23T12:14:35;6.68;;;1.88;;
77762;SDS011;77162;53.358;-1.456;2024-03-23T12:17:19;4.18;;;1.70;;
77762;SDS011;77162;53.358;-1.456;2024-03-23T12:20:05;6.20;;;1.92;;
77762;SDS011;77162;53.358;-1.456;2024-03-23T12:22:49;5.63;;;1.75;;
77762;SDS011;77162;53.358;-1.456;2024-03-23T12:25:33;4.93;;;1.60;;
77762;SDS011;77162;53.358;-1.456;2024-03-23T12:28:18;6.07;;;1.90;;
77762;SDS011;77162;53.358;-1.456;2024-03-23T12:31:01;4.57;;;1.80;;
77762;SDS011;77162;53.358;-1.456;2024-03-23T12:33:45;4.55;;;1.80;;
77762;SDS011;77162;53.358;-1.456;2024-03-23T12:36:29;5.53;;;1.92;;
77762;SDS011;77162;53.358;-1.456;2024-03-23T12:39:13;5.00;;;2.20;;
77762;SDS011;77162;53.358;-1.456;2024-03-23T12:41:57;5.63;;;2.00;;
77762;SDS011;77162;53.358;-1.456;2024-03-23T12:44:41;5.28;;;2.30;;
77762;SDS011;77162;53.358;-1.456;2024-03-23T12:47:25;5.85;;;2.10;;
77762;SDS011;77162;53.358;-1.456;2024-03-23T12:50:09;5.53;;;2.10;;
77762;SDS011;77162;53.358;-1.456;2024-03-23T12:52:53;5.78;;;2.30;;
77762;SDS011;77162;53.358;-1.456;2024-03-23T12:55:37;5.15;;;1.95;;
77762;SDS011;77162;53.358;-1.456;2024-03-23T12:58:21;5.68;;;1.95;;
77762;SDS011;77162;53.358;-1.456;2024-03-23T13:01:05;5.93;;;2.10;;
77762;SDS011;77162;53.358;-1.456;2024-03-23T13:03:50;5.63;;;2.25;;
77762;SDS011;77162;53.358;-1.456;2024-03-23T13:06:34;4.35;;;1.90;;
77762;SDS011;77162;53.358;-1.456;2024-03-23T13:09:18;5.78;;;2.13;;
77762;SDS011;77162;53.358;-1.456;2024-03-23T13:12:02;7.13;;;2.92;;
77762;SDS011;77162;53.358;-1.456;2024-03-23T13:14:46;7.35;;;2.90;;
77762;SDS011;77162;53.358;-1.456;2024-03-23T13:17:30;5.57;;;3.08;;
77762;SDS011;77162;53.358;-1.456;2024-03-23T13:20:14;6.97;;;3.10;;
77762;SDS011;77162;53.358;-1.456;2024-03-23T13:22:58;7.97;;;3.33;;
77762;SDS011;77162;53.358;-1.456;2024-03-23T13:25:49;6.53;;;3.00;;
77762;SDS011;77162;53.358;-1.456;2024-03-23T13:28:33;8.55;;;2.97;;
77762;SDS011;77162;53.358;-1.456;2024-03-23T13:31:16;7.50;;;2.75;;
77762;SDS011;77162;53.358;-1.456;2024-03-23T13:34:00;8.07;;;3.15;;
77762;SDS011;77162;53.358;-1.456;2024-03-23T13:36:45;7.85;;;3.30;;
77762;SDS011;77162;53.358;-1.456;2024-03-23T13:39:30;7.78;;;3.00;;
77762;SDS011;77162;53.358;-1.456;2024-03-23T13:42:13;5.35;;;2.60;;
77762;SDS011;77162;53.358;-1.456;2024-03-23T13:44:59;5.78;;;2.55;;
77762;SDS011;77162;53.358;-1.456;2024-03-23T13:47:43;5.95;;;2.58;;
77762;SDS011;77162;53.358;-1.456;2024-03-23T13:50:27;6.03;;;2.38;;
77762;SDS011;77162;53.358;-1.456;2024-03-23T13:53:11;4.70;;;2.30;;
77762;SDS011;77162;53.358;-1.456;2024-03-23T13:55:55;7.50;;;2.35;;
77762;SDS011;77162;53.358;-1.456;2024-03-23T13:58:39;5.95;;;2.30;;
77762;SDS011;77162;53.358;-1.456;2024-03-23T14:01:23;5.35;;;2.70;;
77762;SDS011;77162;53.358;-1.456;2024-03-23T14:04:08;6.80;;;2.55;;
77762;SDS011;77162;53.358;-1.456;2024-03-23T14:06:52;7.03;;;3.08;;
77762;SDS011;77162;53.358;-1.456;2024-03-23T14:09:35;6.07;;;2.53;;
77762;SDS011;77162;53.358;-1.456;2024-03-23T14:12:19;6.00;;;2.53;;
77762;SDS011;77162;53.358;-1.456;2024-03-23T14:15:06;6.65;;;2.95;;
77762;SDS011;77162;53.358;-1.456;2024-03-23T14:17:50;7.72;;;2.97;;
77762;SDS011;77162;53.358;-1.456;2024-03-23T14:20:35;7.25;;;2.63;;
77762;SDS011;77162;53.358;-1.456;2024-03-23T14:23:19;6.40;;;2.63;;
77762;SDS011;77162;53.358;-1.456;2024-03-23T14:26:03;5.85;;;2.47;;
77762;SDS011;77162;53.358;-1.456;2024-03-23T14:28:47;9.23;;;3.17;;
77762;SDS011;77162;53.358;-1.456;2024-03-23T14:31:30;7.07;;;3.10;;
77762;SDS011;77162;53.358;-1.456;2024-03-23T14:34:14;7.00;;;2.67;;
77762;SDS011;77162;53.358;-1.456;2024-03-23T14:36:58;7.38;;;2.97;;
77762;SDS011;77162;53.358;-1.456;2024-03-23T14:39:43;7.70;;;3.13;;
77762;SDS011;77162;53.358;-1.456;2024-03-23T14:42:28;7.20;;;3.22;;
77762;SDS011;77162;53.358;-1.456;2024-03-23T14:45:12;8.05;;;2.83;;
77762;SDS011;77162;53.358;-1.456;2024-03-23T14:47:56;8.98;;;3.47;;
77762;SDS011;77162;53.358;-1.456;2024-03-23T14:50:41;9.40;;;3.33;;
77762;SDS011;77162;53.358;-1.456;2024-03-23T14:53:25;6.15;;;3.22;;
77762;SDS011;77162;53.358;-1.456;2024-03-23T14:56:11;7.40;;;2.97;;
77762;SDS011;77162;53.358;-1.456;2024-03-23T14:58:57;6.20;;;2.78;;
77762;SDS011;77162;53.358;-1.456;2024-03-23T15:01:41;6.18;;;2.50;;
77762;SDS011;77162;53.358;-1.456;2024-03-23T15:04:25;6.07;;;2.60;;
77762;SDS011;77162;53.358;-1.456;2024-03-23T15:07:09;5.97;;;2.40;;
77762;SDS011;77162;53.358;-1.456;2024-03-23T15:09:53;7.93;;;2.90;;
77762;SDS011;77162;53.358;-1.456;2024-03-23T15:12:37;10.80;;;4.18;;
77762;SDS011;77162;53.358;-1.456;2024-03-23T15:15:21;7.22;;;3.90;;
77762;SDS011;77162;53.358;-1.456;2024-03-23T15:18:06;9.40;;;3.70;;
77762;SDS011;77162;53.358;-1.456;2024-03-23T15:20:53;8.60;;;3.28;;
77762;SDS011;77162;53.358;-1.456;2024-03-23T15:26:21;6.35;;;2.75;;
77762;SDS011;77162;53.358;-1.456;2024-03-23T15:29:05;7.35;;;2.63;;
77762;SDS011;77162;53.358;-1.456;2024-03-23T15:31:58;9.30;;;2.45;;
77762;SDS011;77162;53.358;-1.456;2024-03-23T15:34:42;7.60;;;2.50;;
77762;SDS011;77162;53.358;-1.456;2024-03-23T15:37:26;6.15;;;2.33;;
77762;SDS011;77162;53.358;-1.456;2024-03-23T15:40:10;7.38;;;3.00;;
77762;SDS011;77162;53.358;-1.456;2024-03-23T15:42:55;6.22;;;2.15;;
77762;SDS011;77162;53.358;-1.456;2024-03-23T15:45:39;6.88;;;2.53;;
77762;SDS011;77162;53.358;-1.456;2024-03-23T15:48:22;7.13;;;2.63;;
77762;SDS011;77162;53.358;-1.456;2024-03-23T15:51:06;6.25;;;2.35;;
77762;SDS011;77162;53.358;-1.456;2024-03-23T15:53:50;7.57;;;2.58;;
77762;SDS011;77162;53.358;-1.456;2024-03-23T15:56:41;7.13;;;2.20;;
77762;SDS011;77162;53.358;-1.456;2024-03-23T15:59:25;6.50;;;2.03;;
77762;SDS011;77162;53.358;-1.456;2024-03-23T16:02:09;6.50;;;1.95;;
77762;SDS011;77162;53.358;-1.456;2024-03-23T16:04:54;6.68;;;2.13;;
77762;SDS011;77162;53.358;-1.456;2024-03-23T16:07:37;9.35;;;2.47;;
77762;SDS011;77162;53.358;-1.456;2024-03-23T16:10:22;9.10;;;2.30;;
77762;SDS011;77162;53.358;-1.456;2024-03-23T16:13:07;6.60;;;2.50;;
77762;SDS011;77162;53.358;-1.456;2024-03-23T16:15:54;7.22;;;2.40;;
77762;SDS011;77162;53.358;-1.456;2024-03-23T16:18:38;7.20;;;2.42;;
77762;SDS011;77162;53.358;-1.456;2024-03-23T16:21:25;7.50;;;2.25;;
77762;SDS011;77162;53.358;-1.456;2024-03-23T16:24:09;7.53;;;2.50;;
77762;SDS011;77162;53.358;-1.456;2024-03-23T16:26:54;6.25;;;2.38;;
77762;SDS011;77162;53.358;-1.456;2024-03-23T16:29:38;4.85;;;1.83;;
77762;SDS011;77162;53.358;-1.456;2024-03-23T16:32:22;6.03;;;2.10;;
77762;SDS011;77162;53.358;-1.456;2024-03-23T16:35:08;10.50;;;2.50;;
77762;SDS011;77162;53.358;-1.456;2024-03-23T16:37:55;6.25;;;2.20;;
77762;SDS011;77162;53.358;-1.456;2024-03-23T16:40:39;6.53;;;2.55;;
77762;SDS011;77162;53.358;-1.456;2024-03-23T16:43:23;6.63;;;2.05;;
77762;SDS011;77162;53.358;-1.456;2024-03-23T16:46:09;5.70;;;2.30;;
77762;SDS011;77162;53.358;-1.456;2024-03-23T16:48:54;6.75;;;2.40;;
77762;SDS011;77162;53.358;-1.456;2024-03-23T16:51:38;5.30;;;2.10;;
77762;SDS011;77162;53.358;-1.456;2024-03-23T16:54:22;8.00;;;2.10;;
77762;SDS011;77162;53.358;-1.456;2024-03-23T16:57:06;6.75;;;2.40;;
77762;SDS011;77162;53.358;-1.456;2024-03-23T16:59:50;7.28;;;2.20;;
77762;SDS011;77162;53.358;-1.456;2024-03-23T17:02:34;6.63;;;2.33;;
77762;SDS011;77162;53.358;-1.456;2024-03-23T17:05:21;7.07;;;2.55;;
77762;SDS011;77162;53.358;-1.456;2024-03-23T17:08:06;5.22;;;2.40;;
77762;SDS011;77162;53.358;-1.456;2024-03-23T17:10:50;6.35;;;2.67;;
77762;SDS011;77162;53.358;-1.456;2024-03-23T17:13:33;7.25;;;2.10;;
77762;SDS011;77162;53.358;-1.456;2024-03-23T17:16:17;5.90;;;2.28;;
77762;SDS011;77162;53.358;-1.456;2024-03-23T17:19:01;5.85;;;2.40;;
77762;SDS011;77162;53.358;-1.456;2024-03-23T17:21:45;4.32;;;2.05;;
77762;SDS011;77162;53.358;-1.456;2024-03-23T17:24:29;6.78;;;2.33;;
77762;SDS011;77162;53.358;-1.456;2024-03-23T17:27:13;6.53;;;2.47;;
77762;SDS011;77162;53.358;-1.456;2024-03-23T17:29:57;4.97;;;1.90;;
77762;SDS011;77162;53.358;-1.456;2024-03-23T17:32:41;6.45;;;2.15;;